sensor_id;sensor_type;location;lat;lon;timestamp;P1;durP1;ratioP1;P2;durP2;ratioP2
14235;SDS011;7202;50.718;7.072;2024-01-27T00:00:28;8.93;;;2.58;;
14235;SDS011;7202;50.718;7.072;2024-01-27T00:02:57;10.07;;;2.88;;
14235;SDS011;7202;50.718;7.072;2024-01-27T00:05:26;11.75;;;3.00;;
14235;SDS011;7202;50.718;7.072;2024-01-27T00:07:57;11.65;;;2.75;;
14235;SDS011;7202;50.718;7.072;2024-01-27T00:10:26;7.63;;;2.78;;
14235;SDS011;7202;50.718;7.072;2024-01-27T00:12:54;10.30;;;3.35;;
14235;SDS011;7202;50.718;7.072;2024-01-27T00:15:25;7.60;;;2.25;;
14235;SDS011;7202;50.718;7.072;2024-01-27T00:17:54;9.70;;;2.63;;
14235;SDS011;7202;50.718;7.072;2024-01-27T00:20:23;8.23;;;2.33;;
14235;SDS011;7202;50.718;7.072;2024-01-27T00:22:51;5.88;;;2.42;;
14235;SDS011;7202;50.718;7.072;2024-01-27T00:25:20;11.32;;;2.78;;
14235;SDS011;7202;50.718;7.072;2024-01-27T00:27:49;12.10;;;2.97;;
14235;SDS011;7202;50.718;7.072;2024-01-27T00:30:17;7.18;;;2.25;;
14235;SDS011;7202;50.718;7.072;2024-01-27T00:32:47;9.85;;;2.33;;
14235;SDS011;7202;50.718;7.072;2024-01-27T00:35:16;11.23;;;3.00;;
14235;SDS011;7202;50.718;7.072;2024-01-27T00:37:44;5.03;;;2.17;;
14235;SDS011;7202;50.718;7.072;2024-01-27T00:40:13;8.32;;;2.45;;
14235;SDS011;7202;50.718;7.072;2024-01-27T00:42:41;9.40;;;2.58;;
14235;SDS011;7202;50.718;7.072;2024-01-27T00:45:10;6.82;;;2.40;;
14235;SDS011;7202;50.718;7.072;2024-01-27T00:47:38;8.90;;;2.58;;
14235;SDS011;7202;50.718;7.072;2024-01-27T00:50:09;6.13;;;2.45;;
14235;SDS011;7202;50.718;7.072;2024-01-27T00:52:38;13.25;;;2.53;;
14235;SDS011;7202;50.718;7.072;2024-01-27T00:55:06;8.27;;;2.17;;
14235;SDS011;7202;50.718;7.072;2024-01-27T00:57:35;8.82;;;2.35;;
14235;SDS011;7202;50.718;7.072;2024-01-27T01:00:05;8.68;;;2.10;;
14235;SDS011;7202;50.718;7.072;2024-01-27T01:02:35;6.90;;;2.20;;
14235;SDS011;7202;50.718;7.072;2024-01-27T01:05:04;6.43;;;1.85;;
14235;SDS011;7202;50.718;7.072;2024-01-27T01:07:34;8.85;;;2.78;;
14235;SDS011;7202;50.718;7.072;2024-01-27T01:10:03;6.03;;;2.08;;
14235;SDS011;7202;50.718;7.072;2024-01-27T01:12:32;6.22;;;2.30;;
14235;SDS011;7202;50.718;7.072;2024-01-27T01:15:01;10.98;;;2.63;;
14235;SDS011;7202;50.718;7.072;2024-01-27T01:17:29;4.85;;;2.03;;
14235;SDS011;7202;50.718;7.072;2024-01-27T01:19:58;6.68;;;1.75;;
14235;SDS011;7202;50.718;7.072;2024-01-27T01:22:26;9.20;;;1.95;;
14235;SDS011;7202;50.718;7.072;2024-01-27T01:24:56;8.52;;;2.10;;
14235;SDS011;7202;50.718;7.072;2024-01-27T01:27:25;8.32;;;2.58;;
14235;SDS011;7202;50.718;7.072;2024-01-27T01:29:53;8.88;;;2.30;;
14235;SDS011;7202;50.718;7.072;2024-01-27T01:32:22;11.20;;;2.40;;
14235;SDS011;7202;50.718;7.072;2024-01-27T01:34:51;8.45;;;2.78;;
14235;SDS011;7202;50.718;7.072;2024-01-27T01:37:19;7.40;;;1.67;;
14235;SDS011;7202;50.718;7.072;2024-01-27T01:39:48;5.45;;;1.90;;
14235;SDS011;7202;50.718;7.072;2024-01-27T01:42:18;6.35;;;2.08;;
14235;SDS011;7202;50.718;7.072;2024-01-27T01:44:51;8.10;;;2.22;;
14235;SDS011;7202;50.718;7.072;2024-01-27T01:47:22;11.15;;;3.25;;
14235;SDS011;7202;50.718;7.072;2024-01-27T01:49:50;8.07;;;2.53;;
14235;SDS011;7202;50.718;7.072;2024-01-27T01:52:20;10.90;;;2.45;;
14235;SDS011;7202;50.718;7.072;2024-01-27T01:54:49;8.95;;;2.50;;
14235;SDS011;7202;50.718;7.072;2024-01-27T01:57:20;7.15;;;1.88;;
14235;SDS011;7202;50.718;7.072;2024-01-27T01:59:48;9.93;;;2.40;;
14235;SDS011;7202;50.718;7.072;2024-01-27T02:02:17;6.97;;;2.00;;
14235;SDS011;7202;50.718;7.072;2024-01-27T02:04:45;9.15;;;2.20;;
14235;SDS011;7202;50.718;7.072;2024-01-27T02:07:14;8.00;;;2.10;;
14235;SDS011;7202;50.718;7.072;2024-01-27T02:09:43;13.68;;;2.22;;
14235;SDS011;7202;50.718;7.072;2024-01-27T02:12:12;6.85;;;1.88;;
14235;SDS011;7202;50.718;7.072;2024-01-27T02:14:42;7.85;;;1.95;;
14235;SDS011;7202;50.718;7.072;2024-01-27T02:17:10;9.98;;;2.38;;
14235;SDS011;7202;50.718;7.072;2024-01-27T02:19:39;7.03;;;1.73;;
14235;SDS011;7202;50.718;7.072;2024-01-27T02:22:07;10.95;;;1.98;;
14235;SDS011;7202;50.718;7.072;2024-01-27T02:24:37;10.32;;;2.10;;
14235;SDS011;7202;50.718;7.072;2024-01-27T02:27:06;6.47;;;2.05;;
14235;SDS011;7202;50.718;7.072;2024-01-27T02:29:34;8.73;;;1.73;;
14235;SDS011;7202;50.718;7.072;2024-01-27T02:32:03;13.00;;;2.50;;
14235;SDS011;7202;50.718;7.072;2024-01-27T02:34:32;11.80;;;3.78;;
14235;SDS011;7202;50.718;7.072;2024-01-27T02:37:01;11.57;;;1.80;;
14235;SDS011;7202;50.718;7.072;2024-01-27T02:39:30;5.55;;;1.70;;
14235;SDS011;7202;50.718;7.072;2024-01-27T02:42:00;7.10;;;2.10;;
14235;SDS011;7202;50.718;7.072;2024-01-27T02:44:28;8.10;;;1.98;;
14235;SDS011;7202;50.718;7.072;2024-01-27T02:46:57;6.63;;;1.77;;
14235;SDS011;7202;50.718;7.072;2024-01-27T02:49:25;8.35;;;1.90;;
14235;SDS011;7202;50.718;7.072;2024-01-27T02:51:54;8.20;;;1.80;;
14235;SDS011;7202;50.718;7.072;2024-01-27T02:54:22;10.73;;;2.00;;
14235;SDS011;7202;50.718;7.072;2024-01-27T02:56:51;5.68;;;2.50;;
14235;SDS011;7202;50.718;7.072;2024-01-27T02:59:21;9.30;;;2.00;;
14235;SDS011;7202;50.718;7.072;2024-01-27T03:01:49;7.18;;;2.00;;
14235;SDS011;7202;50.718;7.072;2024-01-27T03:04:18;9.75;;;1.85;;
14235;SDS011;7202;50.718;7.072;2024-01-27T03:06:46;6.07;;;2.15;;
14235;SDS011;7202;50.718;7.072;2024-01-27T03:09:15;9.50;;;2.03;;
14235;SDS011;7202;50.718;7.072;2024-01-27T03:11:43;7.20;;;2.20;;
14235;SDS011;7202;50.718;7.072;2024-01-27T03:14:12;8.23;;;2.72;;
14235;SDS011;7202;50.718;7.072;2024-01-27T03:16:43;14.30;;;2.50;;
14235;SDS011;7202;50.718;7.072;2024-01-27T03:19:11;6.97;;;1.92;;
14235;SDS011;7202;50.718;7.072;2024-01-27T03:21:40;9.15;;;1.85;;
14235;SDS011;7202;50.718;7.072;2024-01-27T03:24:08;11.70;;;2.10;;
14235;SDS011;7202;50.718;7.072;2024-01-27T03:26:37;7.20;;;1.65;;
14235;SDS011;7202;50.718;7.072;2024-01-27T03:29:06;8.43;;;1.80;;
14235;SDS011;7202;50.718;7.072;2024-01-27T03:31:34;6.00;;;1.63;;
14235;SDS011;7202;50.718;7.072;2024-01-27T03:34:04;7.45;;;1.70;;
14235;SDS011;7202;50.718;7.072;2024-01-27T03:36:33;6.65;;;2.08;;
14235;SDS011;7202;50.718;7.072;2024-01-27T03:39:02;10.02;;;2.22;;
14235;SDS011;7202;50.718;7.072;2024-01-27T03:41:31;12.48;;;2.13;;
14235;SDS011;7202;50.718;7.072;2024-01-27T03:43:59;10.13;;;1.83;;
14235;SDS011;7202;50.718;7.072;2024-01-27T03:46:28;5.53;;;2.22;;
14235;SDS011;7202;50.718;7.072;2024-01-27T03:48:56;6.93;;;1.80;;
14235;SDS011;7202;50.718;7.072;2024-01-27T03:51:26;2.95;;;1.40;;
14235;SDS011;7202;50.718;7.072;2024-01-27T03:53:55;6.80;;;1.75;;
14235;SDS011;7202;50.718;7.072;2024-01-27T03:56:24;7.40;;;2.17;;
14235;SDS011;7202;50.718;7.072;2024-01-27T03:58:52;11.57;;;2.45;;
14235;SDS011;7202;50.718;7.072;2024-01-27T04:01:21;7.80;;;1.60;;
14235;SDS011;7202;50.718;7.072;2024-01-27T04:03:50;7.18;;;1.48;;
14235;SDS011;7202;50.718;7.072;2024-01-27T04:06:18;9.30;;;1.98;;
14235;SDS011;7202;50.718;7.072;2024-01-27T04:08:48;8.05;;;2.38;;
14235;SDS011;7202;50.718;7.072;2024-01-27T04:11:20;7.03;;;1.58;;
14235;SDS011;7202;50.718;7.072;2024-01-27T04:13:49;9.88;;;1.60;;
14235;SDS011;7202;50.718;7.072;2024-01-27T04:16:18;7.43;;;1.65;;
14235;SDS011;7202;50.718;7.072;2024-01-27T04:18:47;11.88;;;2.05;;
14235;SDS011;7202;50.718;7.072;2024-01-27T04:21:16;5.28;;;1.60;;
14235;SDS011;7202;50.718;7.072;2024-01-27T04:23:44;4.85;;;1.55;;
14235;SDS011;7202;50.718;7.072;2024-01-27T04:26:14;6.90;;;1.70;;
14235;SDS011;7202;50.718;7.072;2024-01-27T04:28:43;11.25;;;2.38;;
14235;SDS011;7202;50.718;7.072;2024-01-27T04:31:12;7.20;;;2.10;;
14235;SDS011;7202;50.718;7.072;2024-01-27T04:33:40;7.10;;;2.65;;
14235;SDS011;7202;50.718;7.072;2024-01-27T04:36:09;9.25;;;1.80;;
14235;SDS011;7202;50.718;7.072;2024-01-27T04:38:38;7.25;;;2.17;;
14235;SDS011;7202;50.718;7.072;2024-01-27T04:41:06;10.93;;;2.13;;
14235;SDS011;7202;50.718;7.072;2024-01-27T04:43:36;3.83;;;1.38;;
14235;SDS011;7202;50.718;7.072;2024-01-27T04:46:04;7.97;;;1.70;;
14235;SDS011;7202;50.718;7.072;2024-01-27T04:48:34;11.93;;;1.98;;
14235;SDS011;7202;50.718;7.072;2024-01-27T04:51:03;8.98;;;1.77;;
14235;SDS011;7202;50.718;7.072;2024-01-27T04:53:31;7.38;;;1.67;;
14235;SDS011;7202;50.718;7.072;2024-01-27T04:56:00;8.57;;;1.88;;
14235;SDS011;7202;50.718;7.072;2024-01-27T04:58:29;6.35;;;2.35;;
14235;SDS011;7202;50.718;7.072;2024-01-27T05:00:59;5.63;;;1.80;;
14235;SDS011;7202;50.718;7.072;2024-01-27T05:03:27;7.78;;;2.30;;
14235;SDS011;7202;50.718;7.072;2024-01-27T05:05:56;8.60;;;1.65;;
14235;SDS011;7202;50.718;7.072;2024-01-27T05:08:24;6.25;;;1.45;;
14235;SDS011;7202;50.718;7.072;2024-01-27T05:10:53;8.77;;;1.38;;
14235;SDS011;7202;50.718;7.072;2024-01-27T05:13:25;6.63;;;1.88;;
14235;SDS011;7202;50.718;7.072;2024-01-27T05:15:53;7.78;;;1.52;;
14235;SDS011;7202;50.718;7.072;2024-01-27T05:18:23;4.93;;;1.58;;
14235;SDS011;7202;50.718;7.072;2024-01-27T05:20:52;4.18;;;1.50;;
14235;SDS011;7202;50.718;7.072;2024-01-27T05:23:20;12.40;;;1.83;;
14235;SDS011;7202;50.718;7.072;2024-01-27T05:25:50;7.78;;;1.85;;
14235;SDS011;7202;50.718;7.072;2024-01-27T05:28:18;8.85;;;1.90;;
14235;SDS011;7202;50.718;7.072;2024-01-27T05:30:47;3.25;;;1.20;;
14235;SDS011;7202;50.718;7.072;2024-01-27T05:33:16;7.43;;;1.58;;
14235;SDS011;7202;50.718;7.072;2024-01-27T05:35:46;6.07;;;1.60;;
14235;SDS011;7202;50.718;7.072;2024-01-27T05:38:14;5.90;;;1.50;;
14235;SDS011;7202;50.718;7.072;2024-01-27T05:40:43;7.90;;;1.52;;
14235;SDS011;7202;50.718;7.072;2024-01-27T05:43:12;6.43;;;1.23;;
14235;SDS011;7202;50.718;7.072;2024-01-27T05:45:40;4.93;;;1.50;;
14235;SDS011;7202;50.718;7.072;2024-01-27T05:48:09;6.70;;;1.85;;
14235;SDS011;7202;50.718;7.072;2024-01-27T05:50:39;7.78;;;1.55;;
14235;SDS011;7202;50.718;7.072;2024-01-27T05:53:11;8.45;;;1.60;;
14235;SDS011;7202;50.718;7.072;2024-01-27T05:55:40;8.05;;;1.80;;
14235;SDS011;7202;50.718;7.072;2024-01-27T05:58:08;9.10;;;1.77;;
14235;SDS011;7202;50.718;7.072;2024-01-27T06:00:36;4.63;;;1.30;;
14235;SDS011;7202;50.718;7.072;2024-01-27T06:03:05;5.72;;;1.83;;
14235;SDS011;7202;50.718;7.072;2024-01-27T06:05:33;6.43;;;1.63;;
14235;SDS011;7202;50.718;7.072;2024-01-27T06:08:02;3.33;;;1.27;;
14235;SDS011;7202;50.718;7.072;2024-01-27T06:10:32;8.13;;;1.85;;
14235;SDS011;7202;50.718;7.072;2024-01-27T06:13:03;7.63;;;1.83;;
14235;SDS011;7202;50.718;7.072;2024-01-27T06:15:32;8.30;;;2.08;;
14235;SDS011;7202;50.718;7.072;2024-01-27T06:18:00;8.35;;;1.63;;
14235;SDS011;7202;50.718;7.072;2024-01-27T06:20:29;6.28;;;1.63;;
14235;SDS011;7202;50.718;7.072;2024-01-27T06:22:58;8.30;;;1.63;;
14235;SDS011;7202;50.718;7.072;2024-01-27T06:25:26;3.55;;;1.48;;
14235;SDS011;7202;50.718;7.072;2024-01-27T06:27:56;4.95;;;1.75;;
14235;SDS011;7202;50.718;7.072;2024-01-27T06:30:25;7.63;;;2.08;;
14235;SDS011;7202;50.718;7.072;2024-01-27T06:32:53;8.65;;;2.05;;
14235;SDS011;7202;50.718;7.072;2024-01-27T06:35:22;8.27;;;2.83;;
14235;SDS011;7202;50.718;7.072;2024-01-27T06:37:50;9.10;;;2.25;;
14235;SDS011;7202;50.718;7.072;2024-01-27T06:40:19;6.80;;;1.63;;
14235;SDS011;7202;50.718;7.072;2024-01-27T06:42:48;5.43;;;1.77;;
14235;SDS011;7202;50.718;7.072;2024-01-27T06:45:18;8.10;;;1.90;;
14235;SDS011;7202;50.718;7.072;2024-01-27T06:47:47;7.95;;;1.85;;
14235;SDS011;7202;50.718;7.072;2024-01-27T06:50:16;4.95;;;1.65;;
14235;SDS011;7202;50.718;7.072;2024-01-27T06:52:44;7.57;;;1.83;;
14235;SDS011;7202;50.718;7.072;2024-01-27T06:55:13;6.68;;;1.92;;
14235;SDS011;7202;50.718;7.072;2024-01-27T06:57:42;9.65;;;2.30;;
14235;SDS011;7202;50.718;7.072;2024-01-27T07:00:10;7.25;;;1.92;;
14235;SDS011;7202;50.718;7.072;2024-01-27T07:02:43;8.63;;;2.00;;
14235;SDS011;7202;50.718;7.072;2024-01-27T07:05:11;7.75;;;1.80;;
14235;SDS011;7202;50.718;7.072;2024-01-27T07:07:41;7.50;;;1.50;;
14235;SDS011;7202;50.718;7.072;2024-01-27T07:10:10;7.45;;;2.17;;
14235;SDS011;7202;50.718;7.072;2024-01-27T07:12:38;6.80;;;1.92;;
14235;SDS011;7202;50.718;7.072;2024-01-27T07:15:07;5.70;;;1.63;;
14235;SDS011;7202;50.718;7.072;2024-01-27T07:17:36;7.78;;;2.42;;
14235;SDS011;7202;50.718;7.072;2024-01-27T07:20:07;8.30;;;1.80;;
14235;SDS011;7202;50.718;7.072;2024-01-27T07:22:36;8.73;;;1.95;;
14235;SDS011;7202;50.718;7.072;2024-01-27T07:25:05;9.85;;;2.10;;
14235;SDS011;7202;50.718;7.072;2024-01-27T07:27:36;12.15;;;2.33;;
14235;SDS011;7202;50.718;7.072;2024-01-27T07:30:06;5.85;;;2.20;;
14235;SDS011;7202;50.718;7.072;2024-01-27T07:32:36;4.05;;;2.00;;
14235;SDS011;7202;50.718;7.072;2024-01-27T07:35:05;6.13;;;1.70;;
14235;SDS011;7202;50.718;7.072;2024-01-27T07:37:36;6.97;;;2.28;;
14235;SDS011;7202;50.718;7.072;2024-01-27T07:40:05;12.30;;;3.15;;
14235;SDS011;7202;50.718;7.072;2024-01-27T07:42:35;6.50;;;2.65;;
14235;SDS011;7202;50.718;7.072;2024-01-27T07:45:05;4.85;;;2.35;;
14235;SDS011;7202;50.718;7.072;2024-01-27T07:47:35;6.50;;;2.00;;
14235;SDS011;7202;50.718;7.072;2024-01-27T07:50:04;7.28;;;2.60;;
14235;SDS011;7202;50.718;7.072;2024-01-27T07:52:36;7.72;;;2.17;;
14235;SDS011;7202;50.718;7.072;2024-01-27T07:55:04;10.43;;;2.50;;
14235;SDS011;7202;50.718;7.072;2024-01-27T07:57:33;3.63;;;2.05;;
14235;SDS011;7202;50.718;7.072;2024-01-27T08:00:02;7.75;;;2.60;;
14235;SDS011;7202;50.718;7.072;2024-01-27T08:02:33;8.38;;;1.98;;
14235;SDS011;7202;50.718;7.072;2024-01-27T08:05:02;4.78;;;2.33;;
14235;SDS011;7202;50.718;7.072;2024-01-27T08:07:32;6.07;;;2.30;;
14235;SDS011;7202;50.718;7.072;2024-01-27T08:10:01;5.93;;;2.38;;
14235;SDS011;7202;50.718;7.072;2024-01-27T08:12:31;8.90;;;2.00;;
14235;SDS011;7202;50.718;7.072;2024-01-27T08:15:00;4.13;;;2.00;;
14235;SDS011;7202;50.718;7.072;2024-01-27T08:17:29;8.02;;;2.38;;
14235;SDS011;7202;50.718;7.072;2024-01-27T08:19:57;12.02;;;2.42;;
14235;SDS011;7202;50.718;7.072;2024-01-27T08:22:26;5.47;;;1.98;;
14235;SDS011;7202;50.718;7.072;2024-01-27T08:24:57;7.07;;;2.38;;
14235;SDS011;7202;50.718;7.072;2024-01-27T08:27:25;13.07;;;3.05;;
14235;SDS011;7202;50.718;7.072;2024-01-27T08:29:54;7.35;;;2.97;;
14235;SDS011;7202;50.718;7.072;2024-01-27T08:32:24;11.80;;;3.30;;
14235;SDS011;7202;50.718;7.072;2024-01-27T08:34:53;9.02;;;2.83;;
14235;SDS011;7202;50.718;7.072;2024-01-27T08:37:21;10.27;;;3.03;;
14235;SDS011;7202;50.718;7.072;2024-01-27T08:39:50;6.15;;;2.20;;
14235;SDS011;7202;50.718;7.072;2024-01-27T08:42:19;9.05;;;2.88;;
14235;SDS011;7202;50.718;7.072;2024-01-27T08:44:48;5.78;;;2.95;;
14235;SDS011;7202;50.718;7.072;2024-01-27T08:47:16;10.85;;;3.47;;
14235;SDS011;7202;50.718;7.072;2024-01-27T08:49:45;13.98;;;3.00;;
14235;SDS011;7202;50.718;7.072;2024-01-27T08:52:14;7.25;;;2.60;;
14235;SDS011;7202;50.718;7.072;2024-01-27T08:54:42;10.23;;;2.70;;
14235;SDS011;7202;50.718;7.072;2024-01-27T08:57:11;9.65;;;2.90;;
14235;SDS011;7202;50.718;7.072;2024-01-27T08:59:43;7.97;;;2.25;;
14235;SDS011;7202;50.718;7.072;2024-01-27T09:02:11;6.68;;;2.55;;
14235;SDS011;7202;50.718;7.072;2024-01-27T09:04:40;6.78;;;2.70;;
14235;SDS011;7202;50.718;7.072;2024-01-27T09:07:08;5.82;;;2.38;;
14235;SDS011;7202;50.718;7.072;2024-01-27T09:09:37;8.60;;;1.95;;
14235;SDS011;7202;50.718;7.072;2024-01-27T09:12:06;10.63;;;2.90;;
14235;SDS011;7202;50.718;7.072;2024-01-27T09:14:35;8.50;;;3.08;;
14235;SDS011;7202;50.718;7.072;2024-01-27T09:17:04;10.15;;;2.40;;
14235;SDS011;7202;50.718;7.072;2024-01-27T09:19:33;10.40;;;2.75;;
14235;SDS011;7202;50.718;7.072;2024-01-27T09:22:02;8.00;;;2.42;;
14235;SDS011;7202;50.718;7.072;2024-01-27T09:24:31;12.45;;;3.03;;
14235;SDS011;7202;50.718;7.072;2024-01-27T09:26:59;10.23;;;3.20;;
14235;SDS011;7202;50.718;7.072;2024-01-27T09:29:28;9.05;;;2.58;;
14235;SDS011;7202;50.718;7.072;2024-01-27T09:31:57;7.95;;;2.97;;
14235;SDS011;7202;50.718;7.072;2024-01-27T09:34:27;7.05;;;2.38;;
14235;SDS011;7202;50.718;7.072;2024-01-27T09:36:56;8.02;;;2.75;;
14235;SDS011;7202;50.718;7.072;2024-01-27T09:39:24;8.60;;;3.08;;
14235;SDS011;7202;50.718;7.072;2024-01-27T09:41:53;5.53;;;2.55;;
14235;SDS011;7202;50.718;7.072;2024-01-27T09:44:22;9.65;;;3.08;;
14235;SDS011;7202;50.718;7.072;2024-01-27T09:46:53;9.95;;;2.53;;
14235;SDS011;7202;50.718;7.072;2024-01-27T09:49:23;8.43;;;2.92;;
14235;SDS011;7202;50.718;7.072;2024-01-27T09:51:55;8.63;;;2.65;;
14235;SDS011;7202;50.718;7.072;2024-01-27T09:54:24;10.32;;;3.10;;
14235;SDS011;7202;50.718;7.072;2024-01-27T09:56:54;8.20;;;2.40;;
14235;SDS011;7202;50.718;7.072;2024-01-27T09:59:23;9.73;;;2.88;;
14235;SDS011;7202;50.718;7.072;2024-01-27T10:01:54;14.63;;;3.28;;
14235;SDS011;7202;50.718;7.072;2024-01-27T10:04:24;9.52;;;4.22;;
14235;SDS011;7202;50.718;7.072;2024-01-27T10:06:53;10.88;;;3.25;;
14235;SDS011;7202;50.718;7.072;2024-01-27T10:09:25;12.38;;;3.00;;
14235;SDS011;7202;50.718;7.072;2024-01-27T10:11:54;12.35;;;3.55;;
14235;SDS011;7202;50.718;7.072;2024-01-27T10:14:24;15.40;;;3.50;;
14235;SDS011;7202;50.718;7.072;2024-01-27T10:16:53;10.18;;;3.58;;
14235;SDS011;7202;50.718;7.072;2024-01-27T10:19:21;14.77;;;4.40;;
14235;SDS011;7202;50.718;7.072;2024-01-27T10:21:59;9.48;;;3.67;;
14235;SDS011;7202;50.718;7.072;2024-01-27T10:24:31;11.65;;;3.72;;
14235;SDS011;7202;50.718;7.072;2024-01-27T10:27:00;10.18;;;3.70;;
14235;SDS011;7202;50.718;7.072;2024-01-27T10:29:30;10.57;;;3.80;;
14235;SDS011;7202;50.718;7.072;2024-01-27T10:32:06;13.45;;;3.95;;
14235;SDS011;7202;50.718;7.072;2024-01-27T10:34:35;11.88;;;5.45;;
14235;SDS011;7202;50.718;7.072;2024-01-27T10:37:06;9.73;;;4.05;;
14235;SDS011;7202;50.718;7.072;2024-01-27T10:39:34;8.75;;;3.25;;
14235;SDS011;7202;50.718;7.072;2024-01-27T10:42:03;15.73;;;4.25;;
14235;SDS011;7202;50.718;7.072;2024-01-27T10:44:34;8.90;;;3.67;;
14235;SDS011;7202;50.718;7.072;2024-01-27T10:47:04;10.23;;;3.60;;
14235;SDS011;7202;50.718;7.072;2024-01-27T10:49:37;11.43;;;3.42;;
14235;SDS011;7202;50.718;7.072;2024-01-27T10:52:11;12.00;;;3.63;;
14235;SDS011;7202;50.718;7.072;2024-01-27T10:54:43;9.93;;;3.47;;
14235;SDS011;7202;50.718;7.072;2024-01-27T10:57:13;7.97;;;3.10;;
14235;SDS011;7202;50.718;7.072;2024-01-27T10:59:44;7.82;;;3.38;;
14235;SDS011;7202;50.718;7.072;2024-01-27T11:02:14;10.65;;;3.17;;
14235;SDS011;7202;50.718;7.072;2024-01-27T11:04:44;8.63;;;3.50;;
14235;SDS011;7202;50.718;7.072;2024-01-27T11:07:17;13.52;;;3.80;;
14235;SDS011;7202;50.718;7.072;2024-01-27T11:09:49;7.20;;;2.83;;
14235;SDS011;7202;50.718;7.072;2024-01-27T11:12:21;8.07;;;3.08;;
14235;SDS011;7202;50.718;7.072;2024-01-27T11:14:50;11.35;;;3.22;;
14235;SDS011;7202;50.718;7.072;2024-01-27T11:17:19;8.02;;;3.22;;
14235;SDS011;7202;50.718;7.072;2024-01-27T11:19:49;11.32;;;3.58;;
14235;SDS011;7202;50.718;7.072;2024-01-27T11:22:26;13.48;;;3.97;;
14235;SDS011;7202;50.718;7.072;2024-01-27T11:25:05;9.18;;;4.00;;
14235;SDS011;7202;50.718;7.072;2024-01-27T11:27:35;14.00;;;3.42;;
14235;SDS011;7202;50.718;7.072;2024-01-27T11:30:04;10.05;;;3.10;;
14235;SDS011;7202;50.718;7.072;2024-01-27T11:32:40;9.70;;;3.28;;
14235;SDS011;7202;50.718;7.072;2024-01-27T11:35:09;11.15;;;3.15;;
14235;SDS011;7202;50.718;7.072;2024-01-27T11:37:39;8.32;;;2.95;;
14235;SDS011;7202;50.718;7.072;2024-01-27T11:40:12;8.85;;;2.78;;
14235;SDS011;7202;50.718;7.072;2024-01-27T11:42:42;14.80;;;2.95;;
14235;SDS011;7202;50.718;7.072;2024-01-27T11:45:11;9.68;;;2.67;;
14235;SDS011;7202;50.718;7.072;2024-01-27T11:47:39;6.03;;;2.40;;
14235;SDS011;7202;50.718;7.072;2024-01-27T11:50:08;8.75;;;2.35;;
14235;SDS011;7202;50.718;7.072;2024-01-27T11:52:38;11.15;;;3.20;;
14235;SDS011;7202;50.718;7.072;2024-01-27T11:55:07;9.27;;;2.85;;
14235;SDS011;7202;50.718;7.072;2024-01-27T11:57:36;9.43;;;2.45;;
14235;SDS011;7202;50.718;7.072;2024-01-27T12:00:05;10.13;;;2.65;;
14235;SDS011;7202;50.718;7.072;2024-01-27T12:02:36;15.27;;;3.63;;
14235;SDS011;7202;50.718;7.072;2024-01-27T12:05:06;12.60;;;2.90;;
14235;SDS011;7202;50.718;7.072;2024-01-27T12:07:35;5.80;;;2.53;;
14235;SDS011;7202;50.718;7.072;2024-01-27T12:10:06;7.30;;;2.63;;
14235;SDS011;7202;50.718;7.072;2024-01-27T12:12:35;8.63;;;2.38;;
14235;SDS011;7202;50.718;7.072;2024-01-27T12:15:04;8.85;;;2.50;;
14235;SDS011;7202;50.718;7.072;2024-01-27T12:17:33;11.15;;;2.53;;
14235;SDS011;7202;50.718;7.072;2024-01-27T12:20:04;5.57;;;1.85;;
14235;SDS011;7202;50.718;7.072;2024-01-27T12:22:43;13.18;;;2.50;;
14235;SDS011;7202;50.718;7.072;2024-01-27T12:25:13;8.27;;;2.38;;
14235;SDS011;7202;50.718;7.072;2024-01-27T12:27:42;7.63;;;2.28;;
14235;SDS011;7202;50.718;7.072;2024-01-27T12:30:12;13.20;;;2.70;;
14235;SDS011;7202;50.718;7.072;2024-01-27T12:32:42;7.65;;;2.42;;
14235;SDS011;7202;50.718;7.072;2024-01-27T12:35:10;7.68;;;2.30;;
14235;SDS011;7202;50.718;7.072;2024-01-27T12:37:42;10.15;;;2.72;;
14235;SDS011;7202;50.718;7.072;2024-01-27T12:40:19;7.63;;;2.22;;
14235;SDS011;7202;50.718;7.072;2024-01-27T12:42:50;11.32;;;1.95;;
14235;SDS011;7202;50.718;7.072;2024-01-27T12:45:19;10.48;;;2.03;;
14235;SDS011;7202;50.718;7.072;2024-01-27T12:47:48;7.10;;;2.10;;
14235;SDS011;7202;50.718;7.072;2024-01-27T12:50:17;8.00;;;2.33;;
14235;SDS011;7202;50.718;7.072;2024-01-27T12:52:46;10.85;;;2.13;;
14235;SDS011;7202;50.718;7.072;2024-01-27T12:55:15;6.50;;;2.17;;
14235;SDS011;7202;50.718;7.072;2024-01-27T12:57:45;12.05;;;2.40;;
14235;SDS011;7202;50.718;7.072;2024-01-27T13:00:14;7.40;;;1.90;;
14235;SDS011;7202;50.718;7.072;2024-01-27T13:02:44;8.48;;;2.13;;
14235;SDS011;7202;50.718;7.072;2024-01-27T13:05:12;7.53;;;2.30;;
14235;SDS011;7202;50.718;7.072;2024-01-27T13:07:41;7.00;;;2.03;;
14235;SDS011;7202;50.718;7.072;2024-01-27T13:10:11;6.47;;;1.95;;
14235;SDS011;7202;50.718;7.072;2024-01-27T13:12:40;8.18;;;2.50;;
14235;SDS011;7202;50.718;7.072;2024-01-27T13:15:10;9.98;;;2.97;;
14235;SDS011;7202;50.718;7.072;2024-01-27T13:17:39;9.20;;;2.33;;
14235;SDS011;7202;50.718;7.072;2024-01-27T13:20:08;8.68;;;2.92;;
14235;SDS011;7202;50.718;7.072;2024-01-27T13:22:38;12.20;;;3.00;;
14235;SDS011;7202;50.718;7.072;2024-01-27T13:25:07;8.80;;;2.58;;
14235;SDS011;7202;50.718;7.072;2024-01-27T13:27:36;13.13;;;3.40;;
14235;SDS011;7202;50.718;7.072;2024-01-27T13:30:05;7.55;;;2.50;;
14235;SDS011;7202;50.718;7.072;2024-01-27T13:32:38;11.15;;;3.00;;
14235;SDS011;7202;50.718;7.072;2024-01-27T13:35:06;8.98;;;2.80;;
14235;SDS011;7202;50.718;7.072;2024-01-27T13:37:35;7.03;;;2.05;;
14235;SDS011;7202;50.718;7.072;2024-01-27T13:40:04;5.30;;;1.95;;
14235;SDS011;7202;50.718;7.072;2024-01-27T13:42:36;8.32;;;2.55;;
14235;SDS011;7202;50.718;7.072;2024-01-27T13:45:05;8.32;;;2.47;;
14235;SDS011;7202;50.718;7.072;2024-01-27T13:47:36;8.00;;;2.45;;
14235;SDS011;7202;50.718;7.072;2024-01-27T13:50:06;5.78;;;2.22;;
14235;SDS011;7202;50.718;7.072;2024-01-27T13:52:36;9.20;;;2.30;;
14235;SDS011;7202;50.718;7.072;2024-01-27T13:55:04;10.40;;;2.60;;
14235;SDS011;7202;50.718;7.072;2024-01-27T13:57:38;9.93;;;2.85;;
14235;SDS011;7202;50.718;7.072;2024-01-27T14:00:07;9.13;;;2.65;;
14235;SDS011;7202;50.718;7.072;2024-01-27T14:02:39;7.75;;;2.53;;
14235;SDS011;7202;50.718;7.072;2024-01-27T14:05:09;10.35;;;3.00;;
14235;SDS011;7202;50.718;7.072;2024-01-27T14:07:38;7.22;;;2.25;;
14235;SDS011;7202;50.718;7.072;2024-01-27T14:10:06;8.70;;;2.25;;
14235;SDS011;7202;50.718;7.072;2024-01-27T14:12:35;11.07;;;2.47;;
14235;SDS011;7202;50.718;7.072;2024-01-27T14:15:04;6.30;;;2.22;;
14235;SDS011;7202;50.718;7.072;2024-01-27T14:17:34;6.18;;;2.33;;
14235;SDS011;7202;50.718;7.072;2024-01-27T14:20:05;8.32;;;2.60;;
14235;SDS011;7202;50.718;7.072;2024-01-27T14:22:36;7.30;;;2.63;;
14235;SDS011;7202;50.718;7.072;2024-01-27T14:25:05;11.25;;;2.63;;
14235;SDS011;7202;50.718;7.072;2024-01-27T14:27:34;5.53;;;2.38;;
14235;SDS011;7202;50.718;7.072;2024-01-27T14:30:03;5.50;;;2.10;;
14235;SDS011;7202;50.718;7.072;2024-01-27T14:32:33;9.45;;;2.28;;
14235;SDS011;7202;50.718;7.072;2024-01-27T14:35:02;7.95;;;2.88;;
14235;SDS011;7202;50.718;7.072;2024-01-27T14:37:34;10.70;;;2.72;;
14235;SDS011;7202;50.718;7.072;2024-01-27T14:40:04;10.23;;;2.85;;
14235;SDS011;7202;50.718;7.072;2024-01-27T14:42:34;7.40;;;3.10;;
14235;SDS011;7202;50.718;7.072;2024-01-27T14:45:03;13.35;;;3.10;;
14235;SDS011;7202;50.718;7.072;2024-01-27T14:47:32;8.10;;;2.13;;
14235;SDS011;7202;50.718;7.072;2024-01-27T14:50:00;6.47;;;2.47;;
14235;SDS011;7202;50.718;7.072;2024-01-27T14:52:29;12.32;;;2.88;;
14235;SDS011;7202;50.718;7.072;2024-01-27T14:55:00;7.93;;;2.50;;
14235;SDS011;7202;50.718;7.072;2024-01-27T14:57:28;9.05;;;2.25;;
14235;SDS011;7202;50.718;7.072;2024-01-27T14:59:57;7.10;;;2.65;;
14235;SDS011;7202;50.718;7.072;2024-01-27T15:02:26;7.82;;;2.83;;
14235;SDS011;7202;50.718;7.072;2024-01-27T15:04:56;6.88;;;2.40;;
14235;SDS011;7202;50.718;7.072;2024-01-27T15:07:25;11.60;;;2.95;;
14235;SDS011;7202;50.718;7.072;2024-01-27T15:09:56;7.45;;;2.42;;